createdAt,value
2018-12-10T00:01:28.078Z,57.58
2018-12-10T00:03:56.563Z,57.76
2018-12-10T00:06:25.055Z,57.85
2018-12-10T00:08:53.495Z,57.92
2018-12-10T00:11:21.979Z,57.93
2018-12-10T00:13:50.478Z,57.94
2018-12-10T00:16:18.948Z,58.16
2018-12-10T00:18:47.406Z,57.76
2018-12-10T00:21:15.824Z,58.02
2018-12-10T00:23:44.423Z,57.67
2018-12-10T00:26:12.947Z,57.51
2018-12-10T00:28:41.469Z,57.46
2018-12-10T00:31:09.918Z,57.48
2018-12-10T00:33:38.366Z,57.08
2018-12-10T00:36:06.753Z,56.63
2018-12-10T00:38:35.184Z,56.72
2018-12-10T00:41:03.716Z,56.54
2018-12-10T00:43:32.167Z,56.52
2018-12-10T00:46:00.664Z,56.50
2018-12-10T00:48:29.144Z,56.27
2018-12-10T00:50:57.599Z,56.49
2018-12-10T00:53:26.073Z,56.62
2018-12-10T00:55:54.551Z,56.33
2018-12-10T00:58:23.032Z,56.50
2018-12-10T01:00:51.589Z,57.02
2018-12-10T01:03:20.095Z,57.03
2018-12-10T01:05:48.565Z,57.15
2018-12-10T01:08:16.973Z,57.18
2018-12-10T01:10:45.424Z,57.18
2018-12-10T01:13:13.847Z,57.16
2018-12-10T01:15:42.350Z,56.98
2018-12-10T01:18:10.869Z,57.19
2018-12-10T01:20:39.347Z,56.90
2018-12-10T01:23:07.829Z,56.68
2018-12-10T01:25:36.356Z,57.02
2018-12-10T01:28:04.826Z,56.71
2018-12-10T01:30:33.240Z,56.88
2018-12-10T01:33:01.688Z,56.66
2018-12-10T01:35:30.148Z,56.93
2018-12-10T01:37:58.564Z,56.48
2018-12-10T01:40:26.999Z,56.58
2018-12-10T01:42:55.385Z,56.67
2018-12-10T01:45:23.842Z,56.38
2018-12-10T01:47:52.252Z,56.59
2018-12-10T01:50:20.737Z,56.81
2018-12-10T01:52:49.276Z,56.63
2018-12-10T01:55:17.720Z,56.75
2018-12-10T01:57:46.246Z,56.93
2018-12-10T02:00:14.752Z,56.59
2018-12-10T02:02:43.235Z,56.57
2018-12-10T02:05:11.791Z,56.70
2018-12-10T02:07:40.268Z,56.56
2018-12-10T02:10:09.332Z,57.01
2018-12-10T02:12:37.891Z,56.99
2018-12-10T02:15:06.569Z,57.34
2018-12-10T02:17:35.073Z,57.11
2018-12-10T02:20:03.573Z,57.69
2018-12-10T02:22:32.086Z,57.74
2018-12-10T02:25:00.600Z,57.61
2018-12-10T02:27:29.111Z,57.56
2018-12-10T02:29:57.648Z,57.52
2018-12-10T02:32:26.168Z,57.39
2018-12-10T02:34:54.756Z,57.69
2018-12-10T02:37:23.269Z,57.47
2018-12-10T02:39:51.805Z,57.88
2018-12-10T02:42:20.370Z,57.81
2018-12-10T02:44:48.916Z,57.99
2018-12-10T02:47:17.404Z,57.98
2018-12-10T02:49:45.857Z,57.55
2018-12-10T02:52:14.321Z,57.79
2018-12-10T02:54:42.814Z,57.96
2018-12-10T02:57:11.352Z,57.82
2018-12-10T02:59:39.829Z,57.90
2018-12-10T03:02:08.318Z,57.94
2018-12-10T03:04:36.804Z,57.63
2018-12-10T03:07:05.298Z,57.51
2018-12-10T03:09:33.772Z,58.01
2018-12-10T03:12:02.302Z,57.92
2018-12-10T03:14:30.799Z,57.95
2018-12-10T03:16:59.292Z,57.50
2018-12-10T03:19:27.789Z,57.78
2018-12-10T03:21:56.261Z,57.76
2018-12-10T03:24:24.714Z,57.54
2018-12-10T03:26:53.244Z,57.82
2018-12-10T03:29:21.752Z,57.67
2018-12-10T03:31:50.233Z,57.57
2018-12-10T03:34:18.718Z,57.80
2018-12-10T03:36:47.192Z,57.73
2018-12-10T03:39:15.644Z,57.93
2018-12-10T03:41:44.258Z,58.06
2018-12-10T03:44:12.790Z,58.17
2018-12-10T03:46:41.365Z,58.37
2018-12-10T03:49:09.903Z,58.50
2018-12-10T03:51:38.454Z,58.69
2018-12-10T03:54:06.944Z,58.48
2018-12-10T03:56:35.429Z,58.40
2018-12-10T03:59:03.959Z,58.42
2018-12-10T04:01:32.655Z,58.97
2018-12-10T04:04:01.130Z,59.17
2018-12-10T04:06:29.633Z,58.94
2018-12-10T04:08:58.162Z,59.24
2018-12-10T04:11:26.663Z,58.97
2018-12-10T04:13:55.180Z,58.96
2018-12-10T04:16:23.996Z,59.54
2018-12-10T04:18:52.537Z,59.55
2018-12-10T04:21:21.045Z,59.46
2018-12-10T04:23:49.601Z,59.78
2018-12-10T04:26:18.152Z,59.95
2018-12-10T04:28:46.681Z,59.95
2018-12-10T04:31:15.164Z,59.71
2018-12-10T04:33:43.655Z,59.68
2018-12-10T04:36:12.283Z,59.58
2018-12-10T04:38:40.831Z,59.83
2018-12-10T04:41:09.296Z,59.75
2018-12-10T04:43:37.961Z,59.91
2018-12-10T04:46:06.433Z,59.53
2018-12-10T04:48:34.970Z,59.83
2018-12-10T04:51:03.503Z,59.76
2018-12-10T04:53:33.236Z,60.08
2018-12-10T04:56:01.729Z,59.78
2018-12-10T04:58:30.269Z,59.71
2018-12-10T05:00:58.726Z,59.62
2018-12-10T05:03:27.245Z,59.51
2018-12-10T05:05:55.774Z,59.41
2018-12-10T05:08:24.233Z,59.40
2018-12-10T05:10:52.832Z,59.25
2018-12-10T05:13:21.363Z,59.21
2018-12-10T05:15:49.860Z,59.60
2018-12-10T05:18:18.432Z,59.04
2018-12-10T05:20:46.956Z,59.17
2018-12-10T05:23:15.633Z,59.58
2018-12-10T05:25:44.246Z,59.03
2018-12-10T05:28:12.861Z,58.96
2018-12-10T05:30:41.347Z,59.10
2018-12-10T05:33:09.969Z,59.08
2018-12-10T05:35:38.586Z,58.95
2018-12-10T05:38:07.144Z,58.76
2018-12-10T05:40:35.695Z,58.46
2018-12-10T05:43:04.246Z,58.78
2018-12-10T05:45:32.708Z,58.88
2018-12-10T05:48:01.217Z,59.07
2018-12-10T05:50:29.882Z,58.53
2018-12-10T05:52:58.421Z,58.87
2018-12-10T05:55:26.980Z,58.85
2018-12-10T05:57:55.536Z,58.72
2018-12-10T06:00:24.042Z,58.65
2018-12-10T06:02:52.649Z,59.01
2018-12-10T06:05:21.172Z,58.73
2018-12-10T06:07:49.811Z,58.95
2018-12-10T06:10:18.427Z,58.86
2018-12-10T06:12:47.034Z,58.92
2018-12-10T06:15:15.651Z,58.55
2018-12-10T06:17:44.247Z,58.85
2018-12-10T06:20:12.769Z,58.60
2018-12-10T06:22:41.466Z,58.85
2018-12-10T06:25:09.962Z,59.03
2018-12-10T06:27:38.472Z,58.57
2018-12-10T06:30:07.329Z,58.63
2018-12-10T06:32:35.869Z,58.65
2018-12-10T06:35:04.864Z,58.44
2018-12-10T06:37:37.629Z,58.32
2018-12-10T06:40:04.288Z,58.63
2018-12-10T06:42:32.895Z,58.20
2018-12-10T06:45:01.507Z,58.00
2018-12-10T06:47:29.979Z,58.58
2018-12-10T06:49:58.559Z,58.32
2018-12-10T06:52:27.096Z,58.50
2018-12-10T06:54:55.714Z,58.64
2018-12-10T06:57:24.283Z,58.82
2018-12-10T06:59:52.905Z,58.62
2018-12-10T07:02:21.548Z,58.87
2018-12-10T07:04:50.372Z,58.77
2018-12-10T07:07:19.009Z,58.65
2018-12-10T07:09:47.661Z,58.80
2018-12-10T07:12:16.190Z,58.96
2018-12-10T07:14:44.807Z,59.04
2018-12-10T07:17:13.371Z,59.12
2018-12-10T07:19:41.931Z,58.95
2018-12-10T07:22:10.462Z,59.05
2018-12-10T07:24:39.016Z,59.01
2018-12-10T07:27:07.526Z,58.90
2018-12-10T07:29:36.142Z,58.84
2018-12-10T07:32:04.821Z,59.25
2018-12-10T07:34:33.642Z,58.75
2018-12-10T07:37:02.224Z,58.96
2018-12-10T07:39:30.866Z,59.04
2018-12-10T07:41:59.420Z,59.03
2018-12-10T07:44:28.078Z,58.71
2018-12-10T07:46:56.709Z,58.79
2018-12-10T07:49:25.233Z,58.59
2018-12-10T07:51:53.688Z,58.71
2018-12-10T07:54:22.228Z,58.40
2018-12-10T07:56:50.735Z,58.61
2018-12-10T07:59:19.287Z,58.88
2018-12-10T08:01:47.829Z,58.70
2018-12-10T08:04:16.416Z,58.42
2018-12-10T08:06:45.128Z,58.08
2018-12-10T08:09:13.703Z,57.62
2018-12-10T08:11:42.252Z,57.67
2018-12-10T08:14:10.811Z,56.95
2018-12-10T08:16:39.311Z,56.94
2018-12-10T08:19:07.898Z,56.26
2018-12-10T08:21:36.804Z,55.61
2018-12-10T08:24:05.480Z,55.07
2018-12-10T08:26:34.203Z,55.23
2018-12-10T08:29:07.452Z,55.31
2018-12-10T08:31:33.574Z,55.24
2018-12-10T08:34:02.111Z,55.03
2018-12-10T08:36:30.701Z,55.03
2018-12-10T08:38:59.226Z,54.86
2018-12-10T08:41:27.828Z,54.69
2018-12-10T08:43:56.622Z,54.70
2018-12-10T08:46:25.269Z,54.66
2018-12-10T08:48:53.945Z,54.66
2018-12-10T08:51:22.547Z,54.59
2018-12-10T08:53:51.106Z,54.91
2018-12-10T08:56:19.786Z,54.98
2018-12-10T08:58:48.386Z,55.24
2018-12-10T09:01:16.965Z,55.05
2018-12-10T09:03:45.545Z,55.46
2018-12-10T09:06:14.041Z,55.09
2018-12-10T09:08:42.643Z,54.97
2018-12-10T09:13:44.833Z,54.81
2018-12-10T09:16:13.375Z,55.04
2018-12-10T09:18:41.895Z,55.17
2018-12-10T09:21:10.446Z,54.92
2018-12-10T09:23:38.942Z,55.04
2018-12-10T09:26:07.734Z,55.38
2018-12-10T09:28:36.249Z,55.36
2018-12-10T09:31:04.781Z,55.14
2018-12-10T09:33:33.296Z,55.52
2018-12-10T09:36:01.924Z,55.12
2018-12-10T09:38:30.422Z,55.26
2018-12-10T09:40:58.962Z,55.42
2018-12-10T09:43:27.638Z,55.39
2018-12-10T09:45:56.208Z,55.54
2018-12-10T09:48:24.780Z,55.54
2018-12-10T09:50:53.341Z,55.57
2018-12-10T09:53:21.916Z,55.50
2018-12-10T09:55:50.629Z,55.68
2018-12-10T09:58:19.113Z,55.62
2018-12-10T10:00:47.635Z,54.80
2018-12-10T10:03:16.281Z,54.62
2018-12-10T10:05:44.886Z,54.51
2018-12-10T10:08:13.356Z,54.66
2018-12-10T10:10:41.982Z,54.98
2018-12-10T10:13:10.538Z,54.57
2018-12-10T10:15:39.063Z,54.44
2018-12-10T10:18:07.579Z,54.55
2018-12-10T10:20:36.092Z,54.81
2018-12-10T10:23:04.753Z,54.83
2018-12-10T10:25:33.360Z,55.06
2018-12-10T10:28:01.885Z,54.82
2018-12-10T10:30:30.380Z,54.89
2018-12-10T10:32:58.923Z,54.84
2018-12-10T10:35:27.473Z,54.69
2018-12-10T10:37:56.020Z,54.81
2018-12-10T10:40:24.647Z,54.95
2018-12-10T10:42:53.186Z,55.25
2018-12-10T10:45:21.790Z,55.34
2018-12-10T10:47:50.466Z,55.25
2018-12-10T10:50:19.081Z,55.33
2018-12-10T10:52:47.665Z,55.38
2018-12-10T10:55:16.286Z,55.44
2018-12-10T10:57:44.989Z,55.50
2018-12-10T11:00:18.829Z,56.01
2018-12-10T11:02:52.564Z,56.32
2018-12-10T11:05:21.203Z,56.29
2018-12-10T11:07:49.787Z,56.48
2018-12-10T11:10:18.548Z,56.27
2018-12-10T11:12:47.182Z,56.78
2018-12-10T11:15:15.783Z,56.58
2018-12-10T11:17:44.285Z,56.54
2018-12-10T11:20:12.894Z,56.61
2018-12-10T11:22:41.496Z,56.91
2018-12-10T11:25:10.279Z,56.96
2018-12-10T11:27:38.916Z,56.92
2018-12-10T11:30:07.595Z,56.73
2018-12-10T11:32:37.122Z,56.85
2018-12-10T11:35:05.777Z,57.17
2018-12-10T11:37:34.368Z,57.14
2018-12-10T11:40:03.232Z,57.34
2018-12-10T11:48:29.706Z,61.92
2018-12-10T11:50:58.329Z,60.59
2018-12-10T11:53:26.878Z,59.55
2018-12-10T11:55:55.934Z,58.77
2018-12-10T11:58:24.879Z,58.87
2018-12-10T12:00:53.482Z,58.50
2018-12-10T12:03:22.120Z,58.43
2018-12-10T12:05:51.001Z,58.33
2018-12-10T12:08:19.976Z,57.67
2018-12-10T12:10:48.824Z,57.64
2018-12-10T12:13:17.434Z,57.79
2018-12-10T12:15:46.082Z,57.73
2018-12-10T12:18:14.569Z,57.25
2018-12-10T12:20:43.326Z,57.02
2018-12-10T12:23:11.898Z,57.11
2018-12-10T12:25:40.393Z,57.13
2018-12-10T12:28:09.042Z,57.20
2018-12-10T12:30:37.569Z,57.72
2018-12-10T12:33:06.078Z,57.16
2018-12-10T12:35:34.625Z,57.15
2018-12-10T12:38:03.144Z,57.28
2018-12-10T12:40:31.702Z,57.82
2018-12-10T12:43:06.906Z,57.66
2018-12-10T12:45:30.935Z,57.29
2018-12-10T12:47:59.608Z,57.58
2018-12-10T12:50:28.402Z,57.55
2018-12-10T12:52:57.049Z,57.46
2018-12-10T12:55:25.911Z,57.50
2018-12-10T12:57:54.410Z,57.77
2018-12-10T13:00:27.065Z,57.93
2018-12-10T13:02:53.680Z,57.62
2018-12-10T13:05:22.370Z,57.76
2018-12-10T13:07:52.203Z,57.86
2018-12-10T13:10:20.747Z,57.82
2018-12-10T13:12:49.506Z,57.96
2018-12-10T13:15:18.140Z,57.95
2018-12-10T13:17:46.691Z,57.83
2018-12-10T13:20:15.620Z,57.40
2018-12-10T13:22:47.632Z,57.17
2018-12-10T13:25:14.726Z,57.19
2018-12-10T13:27:43.277Z,57.25
2018-12-10T13:30:12.030Z,57.30
2018-12-10T13:32:40.567Z,57.68
2018-12-10T13:35:09.163Z,57.28
2018-12-10T13:37:37.715Z,57.21
2018-12-10T13:40:07.543Z,57.25
2018-12-10T13:42:36.196Z,57.10
2018-12-10T13:45:04.724Z,57.47
2018-12-10T13:47:33.367Z,57.37
2018-12-10T13:50:01.956Z,57.33
2018-12-10T13:52:30.581Z,57.11
2018-12-10T13:54:59.482Z,57.14
2018-12-10T13:57:28.111Z,56.73
2018-12-10T13:59:56.737Z,56.65
2018-12-10T14:02:30.154Z,56.88
2018-12-10T14:04:58.740Z,56.65
2018-12-10T14:07:27.250Z,57.15
2018-12-10T14:09:56.782Z,56.93
2018-12-10T14:12:25.310Z,57.29
2018-12-10T14:14:53.934Z,57.10
2018-12-10T14:17:22.516Z,57.32
2018-12-10T14:19:51.097Z,57.42
2018-12-10T14:22:19.640Z,57.17
2018-12-10T14:24:48.132Z,57.46
2018-12-10T14:27:16.753Z,57.08
2018-12-10T14:29:45.338Z,57.57
2018-12-10T14:32:13.986Z,58.03
2018-12-10T14:34:42.604Z,57.80
2018-12-10T14:37:11.195Z,57.72
2018-12-10T14:39:39.784Z,57.63
2018-12-10T14:42:18.388Z,57.44
2018-12-10T14:44:47.073Z,57.60
2018-12-10T14:47:15.661Z,57.37
2018-12-10T14:49:44.203Z,57.52
2018-12-10T14:52:12.932Z,57.25
2018-12-10T14:54:41.540Z,57.19
2018-12-10T14:57:10.056Z,57.35
2018-12-10T14:59:38.603Z,57.09
2018-12-10T15:02:07.214Z,57.28
2018-12-10T15:04:35.821Z,57.58
2018-12-10T15:07:04.400Z,57.29
2018-12-10T15:09:33.013Z,57.61
2018-12-10T15:12:01.645Z,57.75
2018-12-10T15:14:30.257Z,57.67
2018-12-10T15:16:58.907Z,57.98
2018-12-10T15:19:27.534Z,58.08
2018-12-10T15:21:56.208Z,57.98
2018-12-10T15:24:25.025Z,57.59
2018-12-10T15:26:53.530Z,57.84
2018-12-10T15:29:22.208Z,57.70
2018-12-10T15:31:50.823Z,57.96
2018-12-10T15:34:19.369Z,57.43
2018-12-10T15:36:47.848Z,57.27
2018-12-10T15:39:16.458Z,57.46
2018-12-10T15:41:44.977Z,57.15
2018-12-10T15:44:13.495Z,57.14
2018-12-10T15:46:42.038Z,57.04
2018-12-10T15:49:10.660Z,57.17
2018-12-10T15:51:39.248Z,57.21
2018-12-10T15:54:07.799Z,57.47
2018-12-10T15:56:36.479Z,57.24
2018-12-10T15:59:05.355Z,57.12
2018-12-10T16:01:33.957Z,56.90
2018-12-10T16:04:02.539Z,56.93
2018-12-10T16:06:31.109Z,57.27
2018-12-10T16:08:59.728Z,57.27
2018-12-10T16:11:28.328Z,57.55
2018-12-10T16:13:57.132Z,57.79
2018-12-10T16:16:25.699Z,57.46
2018-12-10T16:18:59.553Z,57.02
2018-12-10T16:21:28.379Z,57.36
2018-12-10T16:23:57.483Z,57.17
2018-12-10T16:26:26.441Z,57.57
2018-12-10T16:28:54.982Z,57.55
2018-12-10T16:31:23.562Z,57.81
2018-12-10T16:33:52.243Z,58.09
2018-12-10T16:36:20.978Z,57.99
2018-12-10T16:38:49.418Z,57.94
2018-12-10T16:41:17.991Z,58.06
2018-12-10T16:43:46.527Z,58.05
2018-12-10T16:46:15.059Z,58.28
2018-12-10T16:48:43.666Z,58.40
2018-12-10T16:51:12.333Z,58.32
2018-12-10T16:53:40.955Z,58.80
2018-12-10T16:56:09.778Z,58.83
2018-12-10T16:58:38.616Z,58.92
2018-12-10T17:01:07.180Z,59.28
2018-12-10T17:03:35.831Z,59.54
2018-12-10T17:06:04.530Z,59.28
2018-12-10T17:08:33.137Z,59.38
2018-12-10T17:11:01.824Z,59.49
2018-12-10T17:13:30.338Z,59.99
2018-12-10T17:15:58.833Z,59.95
2018-12-10T17:18:27.387Z,59.65
2018-12-10T17:20:56.156Z,59.81
2018-12-10T17:23:24.734Z,60.07
2018-12-10T17:25:53.597Z,59.83
2018-12-10T17:28:22.371Z,60.22
2018-12-10T17:30:51.034Z,60.04
2018-12-10T17:33:19.687Z,59.81
2018-12-10T17:35:48.459Z,60.19
2018-12-10T17:38:17.161Z,59.87
2018-12-10T17:40:48.311Z,59.62
2018-12-10T17:43:17.180Z,59.65
2018-12-10T17:45:45.766Z,59.75
2018-12-10T17:48:14.646Z,59.45
2018-12-10T17:50:43.558Z,59.12
2018-12-10T17:53:12.757Z,59.04
2018-12-10T17:55:41.726Z,58.87
2018-12-10T17:58:10.369Z,58.88
2018-12-10T18:00:40.642Z,58.37
2018-12-10T18:03:09.211Z,58.44
2018-12-10T18:05:37.774Z,58.55
2018-12-10T18:08:06.544Z,58.28
2018-12-10T18:10:35.415Z,58.30
2018-12-10T18:13:05.849Z,58.64
2018-12-10T18:15:34.467Z,58.17
2018-12-10T18:18:04.087Z,57.98
2018-12-10T18:20:32.933Z,57.98
2018-12-10T18:23:01.478Z,57.88
2018-12-10T18:25:31.148Z,58.06
2018-12-10T18:27:59.942Z,57.27
2018-12-10T18:33:17.679Z,58.28
2018-12-10T18:35:46.164Z,57.98
2018-12-10T18:38:14.721Z,58.11
2018-12-10T18:40:43.207Z,58.25
2018-12-10T18:43:11.768Z,57.90
2018-12-10T18:45:40.235Z,57.29
2018-12-10T18:48:08.732Z,57.18
2018-12-10T18:50:37.203Z,56.80
2018-12-10T18:53:05.820Z,57.36
2018-12-10T18:55:34.445Z,57.03
2018-12-10T18:58:02.985Z,57.03
2018-12-10T19:00:31.561Z,56.88
2018-12-10T19:03:00.176Z,56.82
2018-12-10T19:05:29.280Z,56.53
2018-12-10T19:07:57.863Z,56.73
2018-12-10T19:10:26.354Z,56.28
2018-12-10T19:12:54.998Z,56.69
2018-12-10T19:15:23.498Z,55.96
2018-12-10T19:17:52.012Z,56.23
2018-12-10T19:20:20.537Z,56.59
2018-12-10T19:22:49.056Z,56.55
2018-12-10T19:25:17.495Z,56.58
2018-12-10T19:27:46.002Z,56.03
2018-12-10T19:30:14.472Z,56.23
2018-12-10T19:32:42.979Z,56.37
2018-12-10T19:35:11.459Z,56.32
2018-12-10T19:37:39.965Z,56.35
2018-12-10T19:40:08.893Z,56.22
2018-12-10T19:42:37.487Z,56.45
2018-12-10T19:45:07.730Z,56.32
2018-12-10T19:47:36.263Z,56.64
2018-12-10T19:50:05.198Z,56.40
2018-12-10T19:52:33.771Z,56.22
2018-12-10T19:55:02.483Z,56.49
2018-12-10T19:57:31.009Z,56.50
2018-12-10T19:59:59.784Z,56.54
2018-12-10T20:02:28.418Z,56.44
2018-12-10T20:04:57.020Z,56.47
2018-12-10T20:07:25.574Z,56.02
2018-12-10T20:09:53.981Z,56.20
2018-12-10T20:12:22.659Z,56.07
2018-12-10T20:14:51.126Z,56.36
2018-12-10T20:17:19.658Z,56.14
2018-12-10T20:19:48.199Z,56.24
2018-12-10T20:22:16.709Z,56.24
2018-12-10T20:24:45.306Z,56.09
2018-12-10T20:27:14.035Z,56.20
2018-12-10T20:29:42.680Z,56.41
2018-12-10T20:32:11.326Z,56.86
2018-12-10T20:34:40.000Z,56.65
2018-12-10T20:37:09.579Z,56.83
2018-12-10T20:39:38.177Z,56.65
2018-12-10T20:42:06.679Z,56.73
2018-12-10T20:44:35.228Z,56.48
2018-12-10T20:47:03.726Z,56.44
2018-12-10T20:49:32.319Z,56.67
2018-12-10T20:52:00.835Z,56.66
2018-12-10T20:54:29.533Z,56.88
2018-12-10T20:56:58.061Z,56.46
2018-12-10T20:59:26.743Z,56.83
2018-12-10T21:01:55.299Z,56.82
2018-12-10T21:04:23.920Z,56.62
2018-12-10T21:06:52.442Z,56.88
2018-12-10T21:09:21.017Z,57.02
2018-12-10T21:11:49.610Z,56.68
2018-12-10T21:14:18.203Z,56.61
2018-12-10T21:16:46.842Z,56.89
2018-12-10T21:19:15.306Z,56.91
2018-12-10T21:21:43.793Z,56.96
2018-12-10T21:24:12.277Z,56.96
2018-12-10T21:26:40.709Z,57.08
2018-12-10T21:29:09.243Z,57.07
2018-12-10T21:31:37.760Z,56.82
2018-12-10T21:34:06.308Z,57.23
2018-12-10T21:36:34.799Z,57.40
2018-12-10T21:39:04.912Z,57.33
2018-12-10T21:41:33.507Z,57.52
2018-12-10T21:44:02.083Z,57.79
2018-12-10T21:46:30.600Z,57.84
2018-12-10T21:48:59.184Z,57.85
2018-12-10T21:51:27.881Z,58.07
2018-12-10T21:53:56.415Z,57.70
2018-12-10T21:56:24.889Z,58.09
2018-12-10T21:58:53.442Z,57.90
2018-12-10T22:01:21.940Z,57.92
2018-12-10T22:03:50.448Z,58.32
2018-12-10T22:06:18.971Z,58.37
2018-12-10T22:08:47.488Z,58.38
2018-12-10T22:11:16.012Z,58.11
2018-12-10T22:13:44.629Z,58.57
2018-12-10T22:16:13.124Z,58.23
2018-12-10T22:18:41.557Z,58.47
2018-12-10T22:21:09.998Z,58.73
2018-12-10T22:23:38.503Z,58.62
2018-12-10T22:26:06.991Z,58.71
2018-12-10T22:28:35.483Z,58.65
2018-12-10T22:31:03.942Z,58.59
2018-12-10T22:33:32.378Z,58.44
2018-12-10T22:36:00.801Z,58.68
2018-12-10T22:38:29.242Z,57.97
2018-12-10T22:40:57.685Z,58.35
2018-12-10T22:43:26.179Z,58.83
2018-12-10T22:45:54.652Z,58.27
2018-12-10T22:48:23.140Z,58.32
2018-12-10T22:50:51.583Z,58.60
2018-12-10T22:53:20.041Z,58.65
2018-12-10T22:55:48.502Z,58.81
2018-12-10T22:58:16.933Z,58.59
2018-12-10T23:00:53.618Z,58.31
2018-12-10T23:03:22.118Z,58.68
2018-12-10T23:05:50.938Z,58.44
2018-12-10T23:08:19.414Z,58.11
2018-12-10T23:10:47.892Z,58.20
2018-12-10T23:13:16.535Z,58.30
2018-12-10T23:15:45.010Z,58.50
2018-12-10T23:18:13.525Z,58.68
2018-12-10T23:20:42.091Z,58.60
2018-12-10T23:23:10.592Z,58.98
2018-12-10T23:25:40.776Z,59.06
2018-12-10T23:28:09.315Z,59.30
2018-12-10T23:30:37.841Z,59.41
2018-12-10T23:33:06.351Z,59.57
2018-12-10T23:35:34.814Z,59.19
2018-12-10T23:38:03.312Z,59.07
2018-12-10T23:40:31.815Z,59.68
2018-12-10T23:43:05.339Z,59.12
2018-12-10T23:45:33.838Z,59.52
2018-12-10T23:48:02.317Z,59.34
2018-12-10T23:50:30.800Z,59.57
2018-12-10T23:52:59.285Z,59.50
2018-12-10T23:55:27.897Z,58.94
2018-12-10T23:57:56.737Z,59.53
